createdAt,value
2018-04-06T00:01:14.414Z,0
2018-04-06T00:02:14.967Z,0
2018-04-06T00:03:15.522Z,0
2018-04-06T00:04:16.077Z,0
2018-04-06T00:05:16.628Z,0
2018-04-06T00:06:17.203Z,0
2018-04-06T00:07:17.756Z,0
2018-04-06T00:08:18.309Z,0
2018-04-06T00:09:18.861Z,0
2018-04-06T00:10:19.436Z,0
2018-04-06T00:11:19.989Z,0
2018-04-06T00:12:20.545Z,0
2018-04-06T00:13:21.118Z,0
2018-04-06T00:14:21.679Z,0
2018-04-06T00:15:22.245Z,0
2018-04-06T00:16:22.799Z,0
2018-04-06T00:17:23.351Z,0
2018-04-06T00:18:23.906Z,0
2018-04-06T00:19:24.458Z,0
2018-04-06T00:20:25.011Z,0
2018-04-06T00:21:25.564Z,0
2018-04-06T00:22:26.120Z,0
2018-04-06T00:23:26.668Z,0
2018-04-06T00:24:27.223Z,0
2018-04-06T00:25:27.795Z,0
2018-04-06T00:26:28.350Z,0
2018-04-06T00:27:28.902Z,0
2018-04-06T00:28:29.477Z,0
2018-04-06T00:29:30.031Z,0
2018-04-06T00:30:30.582Z,0
2018-04-06T00:31:31.117Z,0
2018-04-06T00:32:31.658Z,0
2018-04-06T00:33:32.202Z,0
2018-04-06T00:34:32.746Z,0
2018-04-06T00:35:33.286Z,0
2018-04-06T00:36:33.832Z,0
2018-04-06T00:37:34.370Z,0
2018-04-06T00:38:34.905Z,0
2018-04-06T00:39:35.455Z,0
2018-04-06T00:40:35.991Z,0
2018-04-06T00:41:36.539Z,0
2018-04-06T00:42:37.076Z,0
2018-04-06T00:43:37.615Z,0
2018-04-06T00:44:38.147Z,0
2018-04-06T00:45:38.693Z,0
2018-04-06T00:46:39.231Z,0
2018-04-06T00:47:39.779Z,0
2018-04-06T00:48:40.314Z,0
2018-04-06T00:49:40.865Z,0
2018-04-06T00:50:41.403Z,0
2018-04-06T00:51:41.944Z,0
2018-04-06T00:52:42.490Z,0
2018-04-06T00:53:43.032Z,0
2018-04-06T00:54:43.573Z,0
2018-04-06T00:55:44.110Z,0
2018-04-06T00:56:44.652Z,0
2018-04-06T00:57:45.192Z,0
2018-04-06T00:58:45.735Z,0
2018-04-06T00:59:46.270Z,0
2018-04-06T01:00:46.816Z,0
2018-04-06T01:01:47.355Z,0
2018-04-06T01:02:47.901Z,0
2018-04-06T01:03:48.440Z,0
2018-04-06T01:04:48.983Z,0
2018-04-06T01:05:49.520Z,0
2018-04-06T01:06:50.137Z,0
2018-04-06T01:07:50.669Z,0
2018-04-06T01:08:51.220Z,0
2018-04-06T01:09:51.751Z,0
2018-04-06T01:10:52.290Z,0
2018-04-06T01:11:52.835Z,0
2018-04-06T01:12:53.376Z,0
2018-04-06T01:13:53.922Z,0
2018-04-06T01:14:54.459Z,0
2018-04-06T01:15:55.002Z,0
2018-04-06T01:16:55.541Z,0
2018-04-06T01:17:56.082Z,0
2018-04-06T01:18:56.620Z,0
2018-04-06T01:19:57.165Z,0
2018-04-06T01:20:57.714Z,0
2018-04-06T01:21:58.253Z,0
2018-04-06T01:22:58.790Z,0
2018-04-06T01:23:59.334Z,0
2018-04-06T01:24:59.874Z,0
2018-04-06T01:26:00.420Z,0
2018-04-06T01:27:00.956Z,0
2018-04-06T01:28:01.491Z,0
2018-04-06T01:29:02.037Z,0
2018-04-06T01:30:02.578Z,0
2018-04-06T01:31:03.113Z,0
2018-04-06T01:32:03.649Z,0
2018-04-06T01:33:04.189Z,0
2018-04-06T01:34:04.737Z,0
2018-04-06T01:35:05.280Z,0
2018-04-06T01:36:05.824Z,0
2018-04-06T01:37:06.371Z,0
2018-04-06T01:38:06.910Z,0
2018-04-06T01:39:07.450Z,0
2018-04-06T01:40:07.991Z,0
2018-04-06T01:41:08.532Z,0
2018-04-06T01:42:09.073Z,0
2018-04-06T01:43:09.611Z,0
2018-04-06T01:44:10.158Z,0
2018-04-06T01:45:10.696Z,0
2018-04-06T01:46:11.231Z,0
2018-04-06T01:47:11.778Z,0
2018-04-06T01:48:12.322Z,0
2018-04-06T01:49:12.866Z,0
2018-04-06T01:50:13.404Z,0
2018-04-06T01:51:13.947Z,0
2018-04-06T01:52:14.488Z,0
2018-04-06T01:53:15.042Z,0
2018-04-06T01:54:15.571Z,0
2018-04-06T01:55:16.110Z,0
2018-04-06T01:56:16.652Z,0
2018-04-06T01:57:17.193Z,0
2018-04-06T01:58:17.732Z,0
2018-04-06T01:59:18.275Z,0
2018-04-06T02:00:18.817Z,0
2018-04-06T02:01:19.358Z,0
2018-04-06T02:02:19.899Z,0
2018-04-06T02:03:20.440Z,0
2018-04-06T02:04:20.984Z,0
2018-04-06T02:05:21.516Z,0
2018-04-06T02:06:22.061Z,0
2018-04-06T02:07:22.599Z,0
2018-04-06T02:08:23.142Z,0
2018-04-06T02:09:23.677Z,0
2018-04-06T02:10:24.218Z,0
2018-04-06T02:11:24.757Z,0
2018-04-06T02:12:25.293Z,0
2018-04-06T02:13:25.833Z,0
2018-04-06T02:14:26.371Z,0
2018-04-06T02:15:26.917Z,0
2018-04-06T02:16:27.460Z,0
2018-04-06T02:17:28.006Z,0
2018-04-06T02:18:28.543Z,0
2018-04-06T02:19:29.084Z,0
2018-04-06T02:20:29.623Z,0
2018-04-06T02:21:30.166Z,0
2018-04-06T02:22:30.705Z,0
2018-04-06T02:23:31.243Z,0
2018-04-06T02:24:31.814Z,0
2018-04-06T02:25:32.325Z,0
2018-04-06T02:26:32.877Z,0
2018-04-06T02:27:33.408Z,0
2018-04-06T02:28:33.951Z,0
2018-04-06T02:29:34.487Z,0
2018-04-06T02:30:35.026Z,0
2018-04-06T02:31:35.571Z,0
2018-04-06T02:32:36.115Z,0
2018-04-06T02:33:36.665Z,0
2018-04-06T02:34:37.197Z,0
2018-04-06T02:35:37.742Z,0
2018-04-06T02:36:38.283Z,0
2018-04-06T02:37:38.816Z,0
2018-04-06T02:38:39.369Z,0
2018-04-06T02:39:39.896Z,0
2018-04-06T02:40:40.442Z,0
2018-04-06T02:41:40.973Z,0
2018-04-06T02:42:41.516Z,0
2018-04-06T02:43:42.127Z,0
2018-04-06T02:44:42.594Z,0
2018-04-06T02:45:43.127Z,0
2018-04-06T02:46:43.671Z,0
2018-04-06T02:47:44.217Z,0
2018-04-06T02:48:44.752Z,0
2018-04-06T02:49:45.293Z,0
2018-04-06T02:50:45.840Z,0
2018-04-06T02:51:46.375Z,0
2018-04-06T02:52:46.920Z,0
2018-04-06T02:53:47.461Z,0
2018-04-06T02:54:48.008Z,0
2018-04-06T02:55:48.546Z,0
2018-04-06T02:56:49.081Z,0
2018-04-06T02:57:49.626Z,0
2018-04-06T02:58:50.159Z,0
2018-04-06T02:59:50.694Z,0
2018-04-06T03:00:51.234Z,0
2018-04-06T03:01:51.784Z,0
2018-04-06T03:02:52.315Z,0
2018-04-06T03:03:52.855Z,0
2018-04-06T03:04:53.395Z,0
2018-04-06T03:05:53.936Z,0
2018-04-06T03:06:54.477Z,0
2018-04-06T03:07:55.015Z,0
2018-04-06T03:08:55.559Z,0
2018-04-06T03:09:56.098Z,0
2018-04-06T03:10:56.645Z,0
2018-04-06T03:11:57.187Z,0
2018-04-06T03:12:57.728Z,0
2018-04-06T03:13:58.272Z,0
2018-04-06T03:14:58.833Z,0
2018-04-06T03:15:59.357Z,0
2018-04-06T03:16:59.893Z,0
2018-04-06T03:18:00.430Z,0
2018-04-06T03:19:00.969Z,0
2018-04-06T03:20:01.512Z,0
2018-04-06T03:21:02.055Z,0
2018-04-06T03:22:02.602Z,0
2018-04-06T03:23:03.142Z,0
2018-04-06T03:24:03.677Z,0
2018-04-06T03:25:04.219Z,0
2018-04-06T03:26:04.760Z,0
2018-04-06T03:27:05.304Z,0
2018-04-06T03:28:05.888Z,0
2018-04-06T03:29:06.386Z,0
2018-04-06T03:30:06.923Z,0
2018-04-06T03:31:07.457Z,0
2018-04-06T03:32:07.996Z,0
2018-04-06T03:33:08.539Z,0
2018-04-06T03:34:09.077Z,0
2018-04-06T03:35:09.616Z,0
2018-04-06T03:36:10.163Z,0
2018-04-06T03:37:10.703Z,0
2018-04-06T03:38:11.249Z,0
2018-04-06T03:39:11.785Z,0
2018-04-06T03:40:12.326Z,0
2018-04-06T03:41:12.871Z,0
2018-04-06T03:42:13.412Z,0
2018-04-06T03:43:13.959Z,0
2018-04-06T03:44:14.500Z,0
2018-04-06T03:45:15.033Z,0
2018-04-06T03:46:15.571Z,0
2018-04-06T03:47:16.105Z,0
2018-04-06T03:48:16.640Z,0
2018-04-06T03:49:17.176Z,0
2018-04-06T03:50:17.714Z,0
2018-04-06T03:51:18.257Z,0
2018-04-06T03:52:18.800Z,0
2018-04-06T03:53:19.345Z,0
2018-04-06T03:54:19.887Z,0
2018-04-06T03:55:20.422Z,0
2018-04-06T03:56:20.959Z,0
2018-04-06T03:57:21.500Z,0
2018-04-06T03:58:22.045Z,0
2018-04-06T03:59:22.589Z,0
2018-04-06T04:00:23.134Z,0
2018-04-06T04:01:23.683Z,0
2018-04-06T04:02:24.226Z,0
2018-04-06T04:03:24.759Z,0
2018-04-06T04:04:25.311Z,0
2018-04-06T04:05:25.843Z,0
2018-04-06T04:06:26.378Z,0
2018-04-06T04:07:26.918Z,0
2018-04-06T04:08:27.451Z,0
2018-04-06T04:09:27.992Z,0
2018-04-06T04:10:28.532Z,0
2018-04-06T04:11:29.068Z,0
2018-04-06T04:12:29.612Z,0
2018-04-06T04:13:30.149Z,0
2018-04-06T04:14:30.690Z,0
2018-04-06T04:15:31.234Z,0
2018-04-06T04:16:31.772Z,0
2018-04-06T04:17:32.323Z,0
2018-04-06T04:18:32.864Z,0
2018-04-06T04:19:33.402Z,0
2018-04-06T04:20:33.943Z,0
2018-04-06T04:21:34.478Z,0
2018-04-06T04:22:35.027Z,0
2018-04-06T04:23:35.566Z,0
2018-04-06T04:24:36.109Z,0
2018-04-06T04:25:36.650Z,0
2018-04-06T04:26:37.191Z,0
2018-04-06T04:27:37.736Z,0
2018-04-06T04:28:38.276Z,0
2018-04-06T04:29:38.817Z,0
2018-04-06T04:30:39.356Z,0
2018-04-06T04:31:39.896Z,0
2018-04-06T04:32:40.430Z,0
2018-04-06T04:33:40.975Z,0
2018-04-06T04:34:41.520Z,0
2018-04-06T04:35:42.063Z,0
2018-04-06T04:36:42.602Z,0
2018-04-06T04:37:43.142Z,0
2018-04-06T04:38:43.688Z,0
2018-04-06T04:39:44.269Z,0
2018-04-06T04:40:44.836Z,0
2018-04-06T04:41:45.408Z,0
2018-04-06T04:42:45.965Z,0
2018-04-06T04:43:46.502Z,0
2018-04-06T04:44:47.045Z,0
2018-04-06T04:45:47.588Z,0
2018-04-06T04:46:48.130Z,0
2018-04-06T04:47:48.673Z,0
2018-04-06T04:48:49.213Z,5
2018-04-06T04:49:49.753Z,5
2018-04-06T04:50:50.291Z,5
2018-04-06T04:51:50.833Z,5
2018-04-06T04:52:51.369Z,5
2018-04-06T04:53:51.914Z,5
2018-04-06T04:54:52.460Z,5
2018-04-06T04:55:53.004Z,10
2018-04-06T04:56:53.547Z,10
2018-04-06T04:57:54.088Z,10
2018-04-06T04:58:54.629Z,10
2018-04-06T04:59:55.174Z,15
2018-04-06T05:00:55.791Z,15
2018-04-06T05:01:56.320Z,15
2018-04-06T05:02:56.831Z,15
2018-04-06T05:03:57.421Z,20
2018-04-06T05:04:58.123Z,20
2018-04-06T05:05:58.670Z,20
2018-04-06T05:06:59.219Z,25
2018-04-06T05:07:59.758Z,25
2018-04-06T05:09:00.300Z,25
2018-04-06T05:10:00.844Z,30
2018-04-06T05:11:01.392Z,30
2018-04-06T05:12:01.939Z,35
2018-04-06T05:13:02.482Z,35
2018-04-06T05:14:03.065Z,35
2018-04-06T05:15:03.570Z,40
2018-04-06T05:16:04.117Z,45
2018-04-06T05:17:04.661Z,45
2018-04-06T05:18:05.207Z,50
2018-04-06T05:19:05.747Z,50
2018-04-06T05:20:06.303Z,50
2018-04-06T05:21:06.845Z,55
2018-04-06T05:22:07.382Z,55
2018-04-06T05:23:07.925Z,60
2018-04-06T05:24:08.472Z,60
2018-04-06T05:25:09.016Z,65
2018-04-06T05:26:09.555Z,65
2018-04-06T05:27:10.100Z,70
2018-04-06T05:28:10.647Z,70
2018-04-06T05:29:11.200Z,75
2018-04-06T05:30:11.738Z,75
2018-04-06T05:31:12.284Z,80
2018-04-06T05:32:12.833Z,85
2018-04-06T05:33:13.370Z,85
2018-04-06T05:34:13.918Z,90
2018-04-06T05:35:14.469Z,95
2018-04-06T05:36:15.009Z,100
2018-04-06T05:37:15.553Z,110
2018-04-06T05:38:16.101Z,120
2018-04-06T05:39:16.671Z,130
2018-04-06T05:40:17.199Z,135
2018-04-06T05:41:17.749Z,140
2018-04-06T05:42:18.297Z,145
2018-04-06T05:43:18.848Z,150
2018-04-06T05:44:19.397Z,155
2018-04-06T05:45:19.941Z,155
2018-04-06T05:46:20.495Z,165
2018-04-06T05:47:21.038Z,170
2018-04-06T05:48:21.590Z,170
2018-04-06T05:49:22.144Z,175
2018-04-06T05:50:22.694Z,180
2018-04-06T05:51:23.243Z,185
2018-04-06T05:52:23.802Z,190
2018-04-06T05:53:24.353Z,185
2018-04-06T05:54:24.900Z,175
2018-04-06T05:55:25.450Z,185
2018-04-06T05:56:26.002Z,210
2018-04-06T05:57:26.554Z,220
2018-04-06T05:58:27.108Z,225
2018-04-06T05:59:27.657Z,225
2018-04-06T06:00:28.288Z,235
2018-04-06T06:01:28.858Z,245
2018-04-06T06:02:29.397Z,240
2018-04-06T06:03:29.993Z,240
2018-04-06T06:04:30.525Z,225
2018-04-06T06:05:31.100Z,195
2018-04-06T06:06:31.636Z,200
2018-04-06T06:07:32.191Z,240
2018-04-06T06:08:32.741Z,265
2018-04-06T06:09:33.285Z,280
2018-04-06T06:10:33.842Z,285
2018-04-06T06:11:34.409Z,290
2018-04-06T06:12:34.954Z,295
2018-04-06T06:13:35.506Z,300
2018-04-06T06:14:36.060Z,305
2018-04-06T06:15:36.628Z,315
2018-04-06T06:16:37.175Z,295
2018-04-06T06:17:37.725Z,235
2018-04-06T06:18:38.281Z,225
2018-04-06T06:19:38.844Z,290
2018-04-06T06:20:39.397Z,345
2018-04-06T06:21:39.951Z,360
2018-04-06T06:22:40.520Z,360
2018-04-06T06:23:41.082Z,360
2018-04-06T06:24:41.640Z,370
2018-04-06T06:25:42.200Z,375
2018-04-06T06:26:42.758Z,345
2018-04-06T06:27:43.308Z,270
2018-04-06T06:28:43.881Z,265
2018-04-06T06:29:44.408Z,355
2018-04-06T06:30:44.978Z,405
2018-04-06T06:31:45.532Z,415
2018-04-06T06:32:46.084Z,415
2018-04-06T06:33:46.638Z,430
2018-04-06T06:34:47.200Z,430
2018-04-06T06:35:47.760Z,440
2018-04-06T06:36:48.354Z,445
2018-04-06T06:37:48.873Z,455
2018-04-06T06:38:49.442Z,460
2018-04-06T06:39:50.004Z,460
2018-04-06T06:40:50.565Z,470
2018-04-06T06:41:51.124Z,475
2018-04-06T06:42:51.725Z,485
2018-04-06T06:43:52.243Z,485
2018-04-06T06:44:52.803Z,495
2018-04-06T06:45:53.362Z,500
2018-04-06T06:46:53.928Z,505
2018-04-06T06:47:54.478Z,515
2018-04-06T06:48:55.042Z,525
2018-04-06T06:49:55.604Z,530
2018-04-06T06:50:56.181Z,530
2018-04-06T06:51:56.717Z,550
2018-04-06T06:52:57.275Z,550
2018-04-06T06:53:57.843Z,560
2018-04-06T06:54:58.400Z,565
2018-04-06T06:55:58.967Z,575
2018-04-06T06:56:59.523Z,585
2018-04-06T06:58:00.091Z,590
2018-04-06T06:59:00.651Z,590
2018-04-06T07:00:01.213Z,600
2018-04-06T07:01:01.783Z,605
2018-04-06T07:02:02.345Z,615
2018-04-06T07:03:02.903Z,615
2018-04-06T07:04:03.462Z,625
2018-04-06T07:05:04.031Z,630
2018-04-06T07:06:04.591Z,640
2018-04-06T07:07:05.155Z,645
2018-04-06T07:08:05.711Z,650
2018-04-06T07:09:06.273Z,660
2018-04-06T07:10:06.829Z,670
2018-04-06T07:11:07.390Z,680
2018-04-06T07:12:08.044Z,685
2018-04-06T07:13:08.602Z,690
2018-04-06T07:14:09.220Z,695
2018-04-06T07:15:09.779Z,705
2018-04-06T07:16:10.338Z,715
2018-04-06T07:17:10.894Z,730
2018-04-06T07:18:11.452Z,735
2018-04-06T07:19:12.016Z,740
2018-04-06T07:20:12.572Z,750
2018-04-06T07:21:13.133Z,765
2018-04-06T07:22:13.696Z,770
2018-04-06T07:23:14.259Z,785
2018-04-06T07:24:14.817Z,790
2018-04-06T07:25:15.380Z,815
2018-04-06T07:26:15.944Z,815
2018-04-06T07:27:16.508Z,820
2018-04-06T07:28:17.079Z,835
2018-04-06T07:29:17.636Z,845
2018-04-06T07:30:18.202Z,855
2018-04-06T07:31:18.765Z,865
2018-04-06T07:32:19.330Z,865
2018-04-06T07:33:19.901Z,885
2018-04-06T07:34:20.461Z,900
2018-04-06T07:35:21.023Z,920
2018-04-06T07:36:21.584Z,930
2018-04-06T07:37:22.152Z,950
2018-04-06T07:38:22.707Z,960
2018-04-06T07:39:23.270Z,965
2018-04-06T07:40:23.834Z,995
2018-04-06T07:41:24.393Z,1000
2018-04-06T07:42:24.953Z,1010
2018-04-06T07:43:25.509Z,1020
2018-04-06T07:44:26.133Z,1035
2018-04-06T07:45:26.639Z,1050
2018-04-06T07:46:27.199Z,1060
2018-04-06T07:47:27.762Z,1060
2018-04-06T07:48:28.335Z,1095
2018-04-06T07:49:28.904Z,1085
2018-04-06T07:50:29.501Z,1085
2018-04-06T07:51:30.042Z,1095
2018-04-06T07:52:30.602Z,1105
2018-04-06T07:53:31.161Z,1110
2018-04-06T07:54:31.725Z,1120
2018-04-06T07:55:32.281Z,1130
2018-04-06T07:56:32.846Z,1140
2018-04-06T07:57:33.413Z,1155
2018-04-06T07:58:33.983Z,1165
2018-04-06T07:59:34.539Z,1170
2018-04-06T08:00:35.109Z,1180
2018-04-06T08:01:35.660Z,1205
2018-04-06T08:02:36.220Z,1210
2018-04-06T08:03:36.792Z,1225
2018-04-06T08:04:37.340Z,1225
2018-04-06T08:05:37.926Z,1240
2018-04-06T08:06:38.465Z,1240
2018-04-06T08:07:39.025Z,1255
2018-04-06T08:08:39.593Z,1255
2018-04-06T08:09:40.148Z,1245
2018-04-06T08:10:40.706Z,1250
2018-04-06T08:11:41.269Z,1265
2018-04-06T08:12:42.030Z,1280
2018-04-06T08:13:42.596Z,1300
2018-04-06T08:14:43.163Z,1315
2018-04-06T08:15:43.726Z,1325
2018-04-06T08:16:44.287Z,1335
2018-04-06T08:17:44.857Z,1335
2018-04-06T08:18:45.426Z,1345
2018-04-06T08:19:45.999Z,1370
2018-04-06T08:20:46.565Z,1380
2018-04-06T08:21:47.138Z,1390
2018-04-06T08:22:47.699Z,1390
2018-04-06T08:23:48.260Z,1400
2018-04-06T08:24:48.827Z,1390
2018-04-06T08:25:49.390Z,1380
2018-04-06T08:26:49.955Z,1405
2018-04-06T08:27:50.512Z,1410
2018-04-06T08:28:51.079Z,1420
2018-04-06T08:29:51.648Z,1440
2018-04-06T08:30:52.204Z,1455
2018-04-06T08:31:52.816Z,1455
2018-04-06T08:32:53.360Z,1450
2018-04-06T08:33:53.906Z,1460
2018-04-06T08:34:54.475Z,1465
2018-04-06T08:35:55.037Z,1470
2018-04-06T08:36:55.590Z,1495
2018-04-06T08:37:56.151Z,1495
2018-04-06T08:38:56.724Z,1515
2018-04-06T08:39:57.377Z,1505
2018-04-06T08:40:57.849Z,1510
2018-04-06T08:41:58.409Z,1520
2018-04-06T08:42:58.967Z,1525
2018-04-06T08:43:59.543Z,1545
2018-04-06T08:45:00.112Z,1545
2018-04-06T08:46:00.678Z,1590
2018-04-06T08:47:01.239Z,1570
2018-04-06T08:48:01.813Z,1595
2018-04-06T08:49:02.369Z,1630
2018-04-06T08:50:02.927Z,1640
2018-04-06T08:51:03.496Z,1655
2018-04-06T08:52:04.054Z,1675
2018-04-06T08:53:04.621Z,1685
2018-04-06T08:54:05.186Z,1690
2018-04-06T08:55:05.781Z,1680
2018-04-06T08:56:06.313Z,1680
2018-04-06T08:58:08.439Z,1700
2018-04-06T08:59:08.997Z,1710
2018-04-06T09:00:10.560Z,1710
2018-04-06T09:01:11.122Z,1725
2018-04-06T09:02:11.688Z,1755
2018-04-06T09:03:12.258Z,1765
2018-04-06T09:04:12.819Z,1765
2018-04-06T09:05:13.385Z,1780
2018-04-06T09:06:13.955Z,1780
2018-04-06T09:07:14.519Z,1800
2018-04-06T09:08:15.090Z,1810
2018-04-06T09:09:15.647Z,1840
2018-04-06T09:10:16.213Z,1870
2018-04-06T09:11:16.775Z,1895
2018-04-06T09:12:17.342Z,1920
2018-04-06T09:13:17.906Z,1915
2018-04-06T09:14:18.475Z,1910
2018-04-06T09:15:19.031Z,1935
2018-04-06T09:16:19.607Z,1930
2018-04-06T09:17:20.163Z,1955
2018-04-06T09:18:20.735Z,1975
2018-04-06T09:19:21.292Z,2000
2018-04-06T09:20:21.853Z,1995
2018-04-06T09:21:22.418Z,1970
2018-04-06T09:22:22.979Z,1985
2018-04-06T09:23:23.544Z,2035
2018-04-06T09:24:24.104Z,2045
2018-04-06T09:25:24.667Z,2080
2018-04-06T09:26:25.222Z,2050
2018-04-06T09:27:25.848Z,2065
2018-04-06T09:28:26.403Z,2080
2018-04-06T09:29:26.970Z,2080
2018-04-06T09:30:27.536Z,2090
2018-04-06T09:31:28.097Z,2115
2018-04-06T09:32:28.657Z,2120
2018-04-06T09:33:29.216Z,2150
2018-04-06T09:34:29.804Z,2165
2018-04-06T09:35:30.363Z,2135
2018-04-06T09:36:31.030Z,2135
2018-04-06T09:37:31.840Z,2155
2018-04-06T09:38:32.394Z,2200
2018-04-06T09:39:32.951Z,2210
2018-04-06T09:40:33.518Z,2170
2018-04-06T09:41:34.128Z,2145
2018-04-06T09:42:34.644Z,2135
2018-04-06T09:43:35.216Z,2175
2018-04-06T09:44:35.763Z,2240
2018-04-06T09:45:36.323Z,2255
2018-04-06T09:46:36.905Z,2210
2018-04-06T09:47:37.467Z,2215
2018-04-06T09:48:38.029Z,2225
2018-04-06T09:49:38.625Z,2215
2018-04-06T09:50:39.164Z,2205
2018-04-06T09:51:39.729Z,2240
2018-04-06T09:52:40.353Z,2265
2018-04-06T09:53:40.880Z,2280
2018-04-06T09:54:41.446Z,2280
2018-04-06T09:55:41.999Z,2280
2018-04-06T09:56:42.568Z,2295
2018-04-06T09:57:43.134Z,2300
2018-04-06T09:58:43.705Z,2310
2018-04-06T09:59:44.284Z,2290
2018-04-06T10:00:44.823Z,2285
2018-04-06T10:01:45.391Z,2315
2018-04-06T10:02:45.972Z,2320
2018-04-06T10:03:46.532Z,2310
2018-04-06T10:04:47.086Z,2350
2018-04-06T10:05:47.655Z,2345
2018-04-06T10:06:48.218Z,2330
2018-04-06T10:07:48.800Z,2350
2018-04-06T10:08:49.366Z,2370
2018-04-06T10:09:49.954Z,2375
2018-04-06T10:10:50.542Z,2385
2018-04-06T10:11:51.099Z,2395
2018-04-06T10:12:51.645Z,2435
2018-04-06T10:13:52.212Z,2430
2018-04-06T10:14:52.772Z,2435
2018-04-06T10:15:53.338Z,2440
2018-04-06T10:16:53.898Z,2450
2018-04-06T10:17:54.464Z,2460
2018-04-06T10:18:55.077Z,2475
2018-04-06T10:19:55.612Z,2505
2018-04-06T10:20:56.181Z,2485
2018-04-06T10:21:56.777Z,2470
2018-04-06T10:22:57.328Z,2440
2018-04-06T10:23:57.898Z,2440
2018-04-06T10:24:58.458Z,2470
2018-04-06T10:25:59.025Z,2500
2018-04-06T10:26:59.610Z,2510
2018-04-06T10:28:00.189Z,2515
2018-04-06T10:29:00.741Z,2480
2018-04-06T10:30:01.302Z,2500
2018-04-06T10:31:01.870Z,2530
2018-04-06T10:32:02.432Z,2545
2018-04-06T10:33:02.995Z,2555
2018-04-06T10:34:03.558Z,2575
2018-04-06T10:35:04.232Z,2595
2018-04-06T10:36:04.801Z,2615
2018-04-06T10:37:05.367Z,2650
2018-04-06T10:38:05.949Z,2675
2018-04-06T10:39:06.503Z,2685
2018-04-06T10:40:07.067Z,2715
2018-04-06T10:41:07.628Z,2690
2018-04-06T10:42:08.182Z,2675
2018-04-06T10:43:08.751Z,2665
2018-04-06T10:44:09.311Z,2615
2018-04-06T10:45:09.868Z,2605
2018-04-06T10:46:10.431Z,2600
2018-04-06T10:47:11.095Z,2605
2018-04-06T10:48:11.639Z,2615
2018-04-06T10:49:12.204Z,2665
2018-04-06T10:50:12.757Z,2720
2018-04-06T10:51:13.377Z,2805
2018-04-06T10:52:13.937Z,2850
2018-04-06T10:53:14.504Z,2900
2018-04-06T10:54:15.067Z,2925
2018-04-06T10:55:15.635Z,2940
2018-04-06T10:56:16.206Z,2955
2018-04-06T10:57:16.757Z,2930
2018-04-06T10:58:17.318Z,2910
2018-04-06T10:59:17.883Z,2900
2018-04-06T11:00:18.453Z,2925
2018-04-06T11:01:19.009Z,2955
2018-04-06T11:02:19.574Z,2975
2018-04-06T11:03:20.133Z,2970
2018-04-06T11:04:20.698Z,3005
2018-04-06T11:05:21.264Z,3060
2018-04-06T11:06:21.823Z,3070
2018-04-06T11:07:22.390Z,3080
2018-04-06T11:08:22.942Z,3050
2018-04-06T11:09:23.517Z,3040
2018-04-06T11:10:24.084Z,3055
2018-04-06T11:11:24.645Z,3055
2018-04-06T11:12:25.204Z,3075
2018-04-06T11:13:25.779Z,3105
2018-04-06T11:14:26.336Z,3150
2018-04-06T11:15:26.903Z,3140
2018-04-06T11:16:27.460Z,3130
2018-04-06T11:17:28.016Z,3155
2018-04-06T11:18:28.580Z,3170
2018-04-06T11:19:29.137Z,3200
2018-04-06T11:20:29.700Z,3200
2018-04-06T11:21:30.264Z,3175
2018-04-06T11:22:30.830Z,3175
2018-04-06T11:23:31.391Z,3205
2018-04-06T11:24:31.953Z,3225
2018-04-06T11:25:32.518Z,3235
2018-04-06T11:26:33.078Z,3200
2018-04-06T11:27:33.635Z,3215
2018-04-06T11:28:34.195Z,3260
2018-04-06T11:29:34.758Z,3270
2018-04-06T11:30:35.320Z,3260
2018-04-06T11:31:35.883Z,3240
2018-04-06T11:32:36.442Z,3210
2018-04-06T11:33:37.018Z,3150
2018-04-06T11:34:37.576Z,3070
2018-04-06T11:35:38.139Z,3085
2018-04-06T11:36:38.700Z,3075
2018-04-06T11:37:39.269Z,3080
2018-04-06T11:38:39.831Z,3065
2018-04-06T11:39:40.383Z,3060
2018-04-06T11:40:40.939Z,3050
2018-04-06T11:41:41.499Z,3030
2018-04-06T11:42:42.060Z,3040
2018-04-06T11:43:42.620Z,3035
2018-04-06T11:44:43.174Z,3045
2018-04-06T11:45:43.734Z,3075
2018-04-06T11:46:44.293Z,3120
2018-04-06T11:47:44.874Z,3140
2018-04-06T11:48:45.424Z,3080
2018-04-06T11:49:46.053Z,3065
2018-04-06T11:50:46.600Z,3080
2018-04-06T11:51:47.150Z,3060
2018-04-06T11:52:47.712Z,2965
2018-04-06T11:53:48.282Z,2965
2018-04-06T11:54:48.848Z,2905
2018-04-06T11:55:49.424Z,2905
2018-04-06T11:56:50.057Z,2800
2018-04-06T11:57:50.550Z,2855
2018-04-06T11:58:51.208Z,2810
2018-04-06T11:59:51.748Z,2710
2018-04-06T12:00:52.338Z,2915
2018-04-06T12:01:52.970Z,2870
2018-04-06T12:02:53.588Z,2920
2018-04-06T12:03:54.105Z,2980
2018-04-06T12:04:54.700Z,3055
2018-04-06T12:05:55.272Z,3055
2018-04-06T12:06:55.833Z,3085
2018-04-06T12:07:56.455Z,3090
2018-04-06T12:08:56.938Z,3090
2018-04-06T12:09:57.543Z,3080
2018-04-06T12:10:58.088Z,3020
2018-04-06T12:11:58.643Z,3025
2018-04-06T12:12:59.240Z,2920
2018-04-06T12:13:59.867Z,2905
2018-04-06T12:15:00.398Z,2940
2018-04-06T12:16:00.978Z,2960
2018-04-06T12:17:01.536Z,2995
2018-04-06T12:18:02.147Z,3015
2018-04-06T12:19:02.683Z,3050
2018-04-06T12:20:03.213Z,3010
2018-04-06T12:21:03.825Z,3030
2018-04-06T12:22:04.362Z,3040
2018-04-06T12:23:04.931Z,3005
2018-04-06T12:24:05.534Z,2990
2018-04-06T12:25:06.124Z,2985
2018-04-06T12:26:06.749Z,2915
2018-04-06T12:27:07.294Z,2840
2018-04-06T12:28:07.920Z,2795
2018-04-06T12:29:08.500Z,2635
2018-04-06T12:30:09.103Z,2535
2018-04-06T12:31:09.689Z,2480
2018-04-06T12:32:10.296Z,2595
2018-04-06T12:33:10.803Z,2670
2018-04-06T12:34:11.408Z,2650
2018-04-06T12:35:11.965Z,2515
2018-04-06T12:36:12.578Z,2550
2018-04-06T12:37:13.180Z,2750
2018-04-06T12:38:13.813Z,2830
2018-04-06T12:39:14.350Z,2845
2018-04-06T12:40:14.906Z,2820
2018-04-06T12:41:15.539Z,2775
2018-04-06T12:42:16.136Z,2755
2018-04-06T12:43:16.755Z,2785
2018-04-06T12:44:17.309Z,2830
2018-04-06T12:45:17.869Z,2845
2018-04-06T12:46:18.492Z,2850
2018-04-06T12:47:19.042Z,2840
2018-04-06T12:48:19.605Z,2805
2018-04-06T12:49:20.168Z,2810
2018-04-06T12:50:20.747Z,2745
2018-04-06T12:51:21.371Z,2655
2018-04-06T12:52:21.958Z,2720
2018-04-06T12:53:22.496Z,2695
2018-04-06T12:54:23.060Z,2775
2018-04-06T12:55:23.619Z,2775
2018-04-06T12:56:24.180Z,2775
2018-04-06T12:57:24.784Z,2765
2018-04-06T12:58:25.344Z,2750
2018-04-06T12:59:25.921Z,2725
2018-04-06T13:00:26.544Z,2720
2018-04-06T13:01:27.101Z,2665
2018-04-06T13:02:27.702Z,2705
2018-04-06T13:03:28.320Z,2695
2018-04-06T13:04:29.129Z,2750
2018-04-06T13:05:29.676Z,2720
2018-04-06T13:06:30.230Z,2640
2018-04-06T13:07:30.788Z,2615
2018-04-06T13:08:31.413Z,2640
2018-04-06T13:09:31.987Z,2625
2018-04-06T13:10:32.540Z,2650
2018-04-06T13:11:33.135Z,2635
2018-04-06T13:12:33.777Z,2630
2018-04-06T13:13:34.631Z,2570
2018-04-06T13:14:35.161Z,2550
2018-04-06T13:15:35.784Z,2500
2018-04-06T13:16:36.300Z,2485
2018-04-06T13:17:36.871Z,2505
2018-04-06T13:18:37.419Z,2535
2018-04-06T13:19:37.996Z,2525
2018-04-06T13:20:38.576Z,2530
2018-04-06T13:21:39.120Z,2495
2018-04-06T13:22:39.723Z,2375
2018-04-06T13:23:40.262Z,1530
2018-04-06T13:24:40.827Z,860
2018-04-06T13:25:41.380Z,650
2018-04-06T13:26:41.939Z,585
2018-04-06T13:27:42.500Z,555
2018-04-06T13:28:43.097Z,540
2018-04-06T13:29:43.642Z,535
2018-04-06T13:30:44.239Z,525
2018-04-06T13:31:44.824Z,525
2018-04-06T13:32:45.368Z,530
2018-04-06T13:33:46.029Z,525
2018-04-06T13:34:46.615Z,530
2018-04-06T13:35:47.186Z,540
2018-04-06T13:36:47.804Z,535
2018-04-06T13:37:48.394Z,545
2018-04-06T13:38:49.012Z,555
2018-04-06T13:39:49.533Z,580
2018-04-06T13:40:50.127Z,620
2018-04-06T13:41:50.716Z,670
2018-04-06T13:42:51.280Z,895
2018-04-06T13:43:51.891Z,1675
2018-04-06T13:44:52.431Z,2340
2018-04-06T13:45:53.020Z,2400
2018-04-06T13:46:53.567Z,2430
2018-04-06T13:47:54.165Z,2410
2018-04-06T13:48:54.711Z,2430
2018-04-06T13:49:55.338Z,2440
2018-04-06T13:50:55.904Z,2480
2018-04-06T13:51:56.474Z,2500
2018-04-06T13:52:57.009Z,2555
2018-04-06T13:53:57.566Z,2535
2018-04-06T13:54:58.139Z,2520
2018-04-06T13:55:58.748Z,2540
2018-04-06T13:56:59.268Z,2525
2018-04-06T13:57:59.824Z,2500
2018-04-06T13:59:00.396Z,2495
2018-04-06T14:00:00.949Z,2455
2018-04-06T14:01:01.551Z,2420
2018-04-06T14:02:02.079Z,2370
2018-04-06T14:03:02.634Z,2405
2018-04-06T14:04:03.195Z,2345
2018-04-06T14:05:03.775Z,2200